Time;durP1;ratioP1;P1;durP2;ratioP2;P2;SDS_P1;SDS_P2;PMS_P1;PMS_P2;Temp;Humidity;BMP_temperature;BMP_pressure;BME280_temperature;BME280_humidity;BME280_pressure;Samples;Min_cycle;Max_cycle;Signal;HPM_P1;HPM_P2
2021/03/11 00:01:37;;;;;;;;;;;;;;;1.57;61.49;96868.57;1669175;83;20235;-54
2021/03/11 00:04:05;;;;;;;;;;;;;;;1.59;61.45;96873.64;1678124;83;20236;-54
2021/03/11 00:06:32;;;;;;;;;;;;;;;1.59;61.34;96878.30;1684691;83;21165;-53
2021/03/11 00:08:59;;;;;;;;;;;;;;;1.57;61.44;96881.81;1691892;83;20229;-54
2021/03/11 00:11:27;;;;;;;;;;;;;;;1.58;61.53;96878.34;1692217;83;20281;-53
2021/03/11 00:13:54;;;;;;;;;;;;;;;1.63;61.35;96881.63;1679094;83;20238;-53
2021/03/11 00:16:21;;;;;;;;;;;;;;;1.67;61.22;96885.75;1682398;83;20253;-53
2021/03/11 00:18:50;;;;;;;;;;;;;;;1.67;61.20;96887.48;1680345;83;22219;-53
2021/03/11 00:21:17;;;;;;;;;;;;;;;1.67;61.23;96887.48;1676319;83;20332;-53
2021/03/11 00:23:44;;;;;;;;;;;;;;;1.69;61.19;96885.26;1681075;83;20230;-52
2021/03/11 00:26:11;;;;;;;;;;;;;;;1.71;61.18;96891.61;1672426;83;20216;-53
2021/03/11 00:28:39;;;;;;;;;;;;;;;1.74;61.10;96889.79;1671326;83;20227;-52
2021/03/11 00:31:06;;;;;;;;;;;;;;;1.77;61.05;96896.09;1665693;85;21220;-52
2021/03/11 00:33:33;;;;;;;;;;;;;;;1.78;60.89;96889.28;1683249;84;20282;-53
2021/03/11 00:36:01;;;;;;;;;;;;;;;1.77;60.86;96893.98;1672232;84;20224;-52
2021/03/11 00:38:28;;;;;;;;;;;;;;;1.76;60.91;96893.58;1673275;83;21999;-53
2021/03/11 00:40:56;;;;;;;;;;;;;;;1.74;60.86;96888.51;1692520;84;20305;-52
2021/03/11 00:43:23;;;;;;;;;;;;;;;1.73;60.85;96890.70;1675324;84;21366;-53
2021/03/11 00:45:53;;;;;;;;;;;;;;;1.74;60.89;96891.52;1689305;84;20250;-52
2021/03/11 00:48:20;;;;;;;;;;;;;;;1.72;60.85;96889.00;1667444;84;20227;-52
2021/03/11 00:50:48;;;;;;;;;;;;;;;1.72;60.85;96883.06;1675117;84;20225;-52
2021/03/11 00:53:15;;;;;;;;;;;;;;;1.74;60.85;96883.39;1685442;84;21743;-52
2021/03/11 00:55:43;;;;;;;;;;;;;;;1.77;60.69;96881.20;1665781;84;21224;-52
2021/03/11 00:58:11;;;;;;;;;;;;;;;1.78;60.68;96881.60;1668801;84;20220;-54
2021/03/11 01:00:38;;;;;;;;;;;;;;;1.77;60.71;96883.30;1692260;84;20234;-52
2021/03/11 01:03:07;;;;;;;;;;;;;;;1.78;60.58;96885.44;1691543;84;20513;-52
2021/03/11 01:05:36;;;;;;;;;;;;;;;1.76;60.57;96880.37;1692167;84;20300;-52
2021/03/11 01:08:06;;;;;;;;;;;;;;;1.72;60.63;96877.95;1671569;84;21221;-52
2021/03/11 01:10:36;;;;;;;;;;;;;;;1.73;60.78;96877.91;1677617;84;20228;-52
2021/03/11 01:13:03;;;;;;;;;;;;;;;1.72;60.70;96869.81;1691534;83;20313;-53
2021/03/11 01:15:37;;;;;;;;;;;;;;;1.71;60.75;96873.70;1693175;84;20233;-53
2021/03/11 01:18:05;;;;;;;;;;;;;;;1.70;60.80;96875.89;1670349;84;20232;-52
2021/03/11 01:20:33;;;;;;;;;;;;;;;1.71;60.73;96872.42;1680952;84;21387;-52
2021/03/11 01:23:00;;;;;;;;;;;;;;;1.70;60.76;96873.33;1672721;84;20244;-53
2021/03/11 01:25:27;;;;;;;;;;;;;;;1.72;60.64;96871.10;1667586;84;20232;-53
2021/03/11 01:27:55;;;;;;;;;;;;;;;1.71;60.57;96873.70;1680099;84;20225;-53
2021/03/11 01:30:23;;;;;;;;;;;;;;;1.71;60.55;96875.84;1691278;84;20532;-52
2021/03/11 01:32:50;;;;;;;;;;;;;;;1.72;60.64;96872.38;1681964;84;21221;-53
2021/03/11 01:35:18;;;;;;;;;;;;;;;1.75;60.66;96872.74;1682518;83;20520;-53
2021/03/11 01:37:45;;;;;;;;;;;;;;;1.72;60.65;96868.99;1678685;84;20253;-53
2021/03/11 01:40:13;;;;;;;;;;;;;;;1.69;60.83;96869.08;1693299;84;20238;-53
2021/03/11 01:42:40;;;;;;;;;;;;;;;1.69;60.77;96871.64;1691234;84;20233;-53
2021/03/11 01:45:09;;;;;;;;;;;;;;;1.70;60.76;96869.48;1683849;84;21469;-52
2021/03/11 01:47:36;;;;;;;;;;;;;;;1.70;60.75;96871.59;1687103;84;20226;-52
2021/03/11 01:50:05;;;;;;;;;;;;;;;1.71;60.69;96871.14;1684038;84;20221;-52
2021/03/11 01:52:33;;;;;;;;;;;;;;;1.70;60.79;96870.77;1676060;84;20232;-53
2021/03/11 01:55:00;;;;;;;;;;;;;;;1.66;60.85;96868.72;1672275;84;20221;-53
2021/03/11 01:57:28;;;;;;;;;;;;;;;1.65;60.86;96864.06;1681192;84;21219;-52
2021/03/11 01:59:55;;;;;;;;;;;;;;;1.61;60.80;96859.08;1666220;84;21820;-53
2021/03/11 02:02:23;;;;;;;;;;;;;;;1.61;61.08;96862.91;1668847;84;20220;-53
2021/03/11 02:04:50;;;;;;;;;;;;;;;1.62;61.05;96863.32;1667331;84;20697;-53
2021/03/11 02:07:19;;;;;;;;;;;;;;;1.66;61.00;96863.61;1669180;84;20257;-53
2021/03/11 02:09:46;;;;;;;;;;;;;;;1.65;60.96;96857.66;1679568;84;21058;-52
2021/03/11 02:12:27;;;;;;;;;;;;;;;1.63;60.92;96861.17;1693819;84;20532;-52
2021/03/11 02:15:04;;;;;;;;;;;;;;;1.61;60.92;96857.80;1670178;84;20223;-53
2021/03/11 02:17:35;;;;;;;;;;;;;;;1.56;60.98;96866.91;1645903;86;20236;-52
2021/03/11 02:20:42;;;;;;;;;;;;;;;1.49;61.25;96865.86;1668779;84;20223;-52
2021/03/11 02:23:42;;;;;;;;;;;;;;;1.47;61.29;96864.17;1667661;84;21153;-53
2021/03/11 02:26:33;;;;;;;;;;;;;;;1.40;61.22;96854.19;1674103;84;20284;-53
2021/03/11 02:29:05;;;;;;;;;;;;;;;1.32;61.50;96851.85;1666367;84;20295;-53
2021/03/11 02:31:35;;;;;;;;;;;;;;;1.27;61.71;96847.32;1672476;84;20759;-52
2021/03/11 02:34:20;;;;;;;;;;;;;;;1.30;61.70;96845.95;1682513;84;20217;-52
2021/03/11 02:36:49;;;;;;;;;;;;;;;1.32;61.73;96848.47;1665953;84;22478;-53
2021/03/11 02:39:17;;;;;;;;;;;;;;;1.33;61.73;96847.12;1679265;84;20280;-53
2021/03/11 02:41:44;;;;;;;;;;;;;;;1.34;61.60;96850.53;1672175;84;20228;-53
2021/03/11 02:44:11;;;;;;;;;;;;;;;1.35;61.59;96853.05;1677685;83;20256;-52
2021/03/11 02:46:40;;;;;;;;;;;;;;;1.37;61.62;96844.05;1683506;83;20239;-53
2021/03/11 02:49:08;;;;;;;;;;;;;;;1.34;61.57;96846.25;1687000;84;21404;-53
2021/03/11 02:51:36;;;;;;;;;;;;;;;1.33;61.50;96847.12;1670091;83;20499;-53
2021/03/11 02:54:03;;;;;;;;;;;;;;;1.34;61.50;96852.64;1680325;84;20227;-52
2021/03/11 02:56:31;;;;;;;;;;;;;;;1.34;61.35;96840.30;1667228;84;20223;-53
2021/03/11 02:58:58;;;;;;;;;;;;;;;1.27;61.30;96839.20;1677219;84;20224;-53
2021/03/11 03:01:26;;;;;;;;;;;;;;;1.20;61.34;96835.16;1665995;84;21382;-52
2021/03/11 03:03:54;;;;;;;;;;;;;;;1.14;61.50;96834.05;1665741;86;20224;-52
2021/03/11 03:06:21;;;;;;;;;;;;;;;1.10;61.65;96834.59;1677623;84;20231;-52
2021/03/11 03:08:49;;;;;;;;;;;;;;;1.07;61.71;96835.95;1682988;85;20786;-52
2021/03/11 03:11:16;;;;;;;;;;;;;;;1.04;61.79;96836.48;1664096;86;20248;-53
2021/03/11 03:13:44;;;;;;;;;;;;;;;1.00;61.89;96838.72;1678569;85;21082;-52
2021/03/11 03:16:12;;;;;;;;;;;;;;;0.96;62.08;96843.53;1688317;85;20551;-53
2021/03/11 03:18:40;;;;;;;;;;;;;;;0.91;62.25;96839.38;1685507;85;20242;-53
2021/03/11 03:21:08;;;;;;;;;;;;;;;0.91;62.35;96846.21;1689580;83;20281;-53
2021/03/11 03:23:36;;;;;;;;;;;;;;;0.89;62.46;96839.03;1677197;84;20233;-52
2021/03/11 03:26:03;;;;;;;;;;;;;;;0.87;62.50;96849.72;1682918;85;21226;-52
2021/03/11 03:28:30;;;;;;;;;;;;;;;0.85;62.54;96847.66;1673637;85;20621;-52
2021/03/11 03:30:57;;;;;;;;;;;;;;;0.81;62.67;96852.02;1686025;84;20566;-52
2021/03/11 03:33:25;;;;;;;;;;;;;;;0.79;62.66;96848.67;1684940;85;20246;-54
2021/03/11 03:35:52;;;;;;;;;;;;;;;0.75;62.71;96847.06;1690551;85;20225;-53
2021/03/11 03:38:19;;;;;;;;;;;;;;;0.71;62.85;96848.05;1690596;85;21376;-52
2021/03/11 03:40:47;;;;;;;;;;;;;;;0.69;62.87;96845.53;1689521;84;20292;-52
2021/03/11 03:43:17;;;;;;;;;;;;;;;0.69;62.80;96845.95;1678239;84;20275;-52
2021/03/11 03:45:55;;;;;;;;;;;;;;;0.68;62.67;96854.06;1666542;85;20227;-52
2021/03/11 03:48:25;;;;;;;;;;;;;;;0.69;62.74;96861.27;1680572;84;20579;-52
2021/03/11 03:50:52;;;;;;;;;;;;;;;0.65;62.79;96860.97;1664350;85;21682;-52
2021/03/11 03:53:21;;;;;;;;;;;;;;;0.64;62.77;96863.97;1666439;85;20257;-53
2021/03/11 03:55:53;;;;;;;;;;;;;;;0.63;62.77;96859.73;1668771;85;20527;-53
2021/03/11 03:58:20;;;;;;;;;;;;;;;0.58;62.75;96853.91;1669594;85;20262;-53
2021/03/11 04:00:48;;;;;;;;;;;;;;;0.51;62.83;96857.48;1683894;85;21904;-53
2021/03/11 04:03:17;;;;;;;;;;;;;;;0.43;62.80;96852.60;1666927;85;21363;-53
2021/03/11 04:05:45;;;;;;;;;;;;;;;0.39;62.94;96851.44;1688096;85;20231;-52
2021/03/11 04:08:12;;;;;;;;;;;;;;;0.35;63.04;96847.69;1666013;85;20296;-53
2021/03/11 04:10:42;;;;;;;;;;;;;;;0.30;62.91;96854.63;1678450;84;20322;-52
2021/03/11 04:13:10;;;;;;;;;;;;;;;0.25;63.10;96855.64;1670005;84;20291;-52
2021/03/11 04:15:37;;;;;;;;;;;;;;;0.16;63.30;96855.41;1667709;85;21297;-53
2021/03/11 04:18:05;;;;;;;;;;;;;;;0.05;63.57;96856.10;1687359;84;20256;-52
2021/03/11 04:20:32;;;;;;;;;;;;;;;-0.02;63.99;96849.04;1701914;84;20244;-51
2021/03/11 04:22:59;;;;;;;;;;;;;;;-0.02;64.10;96850.31;1668368;85;20395;-51
2021/03/11 04:25:27;;;;;;;;;;;;;;;-0.03;64.16;96840.55;1663149;83;20290;-50
2021/03/11 04:27:54;;;;;;;;;;;;;;;-0.04;64.17;96843.14;1656188;85;21378;-50
2021/03/11 04:30:23;;;;;;;;;;;;;;;-0.02;64.50;96838.42;1663948;85;20246;-51
2021/03/11 04:32:50;;;;;;;;;;;;;;;0.02;64.53;96840.45;1665013;85;20501;-52
2021/03/11 04:35:18;;;;;;;;;;;;;;;0.00;64.38;96843.48;1666708;84;20217;-53
2021/03/11 04:37:45;;;;;;;;;;;;;;;-0.05;64.47;96842.73;1699608;82;20240;-54
2021/03/11 04:40:14;;;;;;;;;;;;;;;-0.04;64.33;96846.52;1695277;82;21419;-54
2021/03/11 04:42:42;;;;;;;;;;;;;;;0.02;64.17;96842.14;1694520;82;20236;-53
2021/03/11 04:45:10;;;;;;;;;;;;;;;-0.06;64.24;96831.70;1683851;83;20304;-53
2021/03/11 04:47:38;;;;;;;;;;;;;;;-0.02;64.04;96833.31;1676279;83;20290;-53
2021/03/11 04:50:06;;;;;;;;;;;;;;;0.02;63.97;96820.04;1676494;83;20701;-53
2021/03/11 04:52:36;;;;;;;;;;;;;;;-0.08;64.06;96821.98;1672739;84;21213;-53
2021/03/11 04:55:06;;;;;;;;;;;;;;;-0.09;64.25;96826.67;1694588;82;20244;-53
2021/03/11 04:57:33;;;;;;;;;;;;;;;-0.04;64.13;96824.84;1648138;85;20300;-53
2021/03/11 05:00:01;;;;;;;;;;;;;;;0.01;63.94;96822.18;1696909;82;20298;-53
2021/03/11 05:02:33;;;;;;;;;;;;;;;0.05;63.84;96825.48;1703203;82;20228;-54
2021/03/11 05:05:03;;;;;;;;;;;;;;;0.06;63.81;96823.34;1668774;84;22197;-54
2021/03/11 05:07:30;;;;;;;;;;;;;;;0.02;63.96;96823.88;1676161;84;20513;-52
2021/03/11 05:09:57;;;;;;;;;;;;;;;0.06;64.07;96824.17;1685452;84;20284;-55
2021/03/11 05:12:24;;;;;;;;;;;;;;;0.10;63.78;96824.52;1681300;84;20236;-55
2021/03/11 05:14:51;;;;;;;;;;;;;;;0.11;63.56;96830.45;1682027;84;20225;-54
2021/03/11 05:17:19;;;;;;;;;;;;;;;0.09;63.56;96824.10;1686385;84;21166;-53
2021/03/11 05:19:46;;;;;;;;;;;;;;;0.13;63.39;96829.55;1658416;86;20310;-54
2021/03/11 05:22:14;;;;;;;;;;;;;;;0.22;63.07;96830.19;1678605;84;21171;-54
2021/03/11 05:24:41;;;;;;;;;;;;;;;0.22;62.39;96824.64;1676662;84;20221;-54
2021/03/11 05:27:10;;;;;;;;;;;;;;;0.16;62.24;96823.51;1680987;84;20273;-54
2021/03/11 05:29:39;;;;;;;;;;;;;;;0.14;62.42;96827.82;1679158;84;21231;-53
2021/03/11 05:32:06;;;;;;;;;;;;;;;0.18;62.50;96830.27;1684317;84;20691;-54
2021/03/11 05:34:34;;;;;;;;;;;;;;;0.27;62.41;96830.91;1676126;84;20664;-54
2021/03/11 05:37:02;;;;;;;;;;;;;;;0.33;62.33;96834.58;1687393;84;20250;-53
2021/03/11 05:39:30;;;;;;;;;;;;;;;0.41;62.27;96835.22;1679070;84;20238;-55
2021/03/11 05:41:57;;;;;;;;;;;;;;;0.51;62.35;96841.75;1687767;84;21655;-53
2021/03/11 05:44:25;;;;;;;;;;;;;;;0.64;62.21;96839.72;1673342;85;20240;-53
2021/03/11 05:46:52;;;;;;;;;;;;;;;0.75;61.96;96841.95;1662989;85;20520;-53
2021/03/11 05:49:20;;;;;;;;;;;;;;;0.86;61.69;96846.33;1678895;85;20501;-54
2021/03/11 05:51:48;;;;;;;;;;;;;;;0.99;61.38;96847.28;1681229;85;20246;-53
2021/03/11 05:54:15;;;;;;;;;;;;;;;1.03;61.13;96843.30;1676651;85;21964;-54
2021/03/11 05:56:42;;;;;;;;;;;;;;;1.10;61.03;96857.59;1668552;84;20218;-55
2021/03/11 05:59:09;;;;;;;;;;;;;;;1.19;61.13;96860.31;1683634;84;20285;-55
2021/03/11 06:01:36;;;;;;;;;;;;;;;1.33;60.78;96861.17;1650887;86;20228;-54
2021/03/11 06:04:04;;;;;;;;;;;;;;;1.41;60.40;96855.84;1655601;86;20529;-53
2021/03/11 06:06:31;;;;;;;;;;;;;;;1.46;60.19;96861.23;1678533;84;21369;-54
2021/03/11 06:08:58;;;;;;;;;;;;;;;1.50;60.02;96859.42;1693108;83;20342;-53
2021/03/11 06:11:25;;;;;;;;;;;;;;;1.55;59.84;96855.00;1668039;86;20227;-53
2021/03/11 06:13:53;;;;;;;;;;;;;;;1.58;59.68;96860.45;1667078;84;22284;-53
2021/03/11 06:16:25;;;;;;;;;;;;;;;1.61;59.51;96860.36;1686912;83;20223;-54
2021/03/11 06:18:53;;;;;;;;;;;;;;;1.66;59.29;96862.33;1659087;85;21228;-53
2021/03/11 06:21:20;;;;;;;;;;;;;;;1.71;59.13;96865.61;1667591;84;20228;-52
2021/03/11 06:23:47;;;;;;;;;;;;;;;1.79;58.96;96867.48;1668405;84;20310;-53
2021/03/11 06:26:15;;;;;;;;;;;;;;;1.86;58.95;96866.85;1671985;84;20246;-54
2021/03/11 06:28:49;;;;;;;;;;;;;;;1.93;58.75;96873.89;1666951;84;20267;-53
2021/03/11 06:31:18;;;;;;;;;;;;;;;1.99;58.52;96873.67;1664404;84;21322;-53
2021/03/11 06:33:46;;;;;;;;;;;;;;;2.03;58.27;96876.09;1668353;84;20232;-55
2021/03/11 06:36:13;;;;;;;;;;;;;;;2.06;58.24;96867.95;1668040;84;20231;-54
2021/03/11 06:38:41;;;;;;;;;;;;;;;2.14;58.31;96868.08;1666517;84;20232;-53
2021/03/11 06:41:09;;;;;;;;;;;;;;;2.23;57.87;96868.22;1674318;84;20287;-53
2021/03/11 06:43:58;;;;;;;;;;;;;;;2.29;57.56;96875.70;1666363;84;21185;-53
2021/03/11 06:46:26;;;;;;;;;;;;;;;2.32;57.35;96874.33;1659708;84;20256;-53
2021/03/11 06:49:10;;;;;;;;;;;;;;;2.36;57.03;96870.76;1675998;84;20228;-53
2021/03/11 06:51:38;;;;;;;;;;;;;;;2.38;56.93;96871.56;1674792;84;20300;-53
2021/03/11 06:54:06;;;;;;;;;;;;;;;2.42;56.89;96881.27;1663059;86;20232;-53
2021/03/11 06:56:33;;;;;;;;;;;;;;;2.51;56.79;96879.66;1694858;83;22022;-53
2021/03/11 06:59:02;;;;;;;;;;;;;;;2.63;56.55;96887.39;1664822;86;20281;-53
2021/03/11 07:01:31;;;;;;;;;;;;;;;2.72;56.42;96877.27;1675215;84;20228;-53
2021/03/11 07:04:01;;;;;;;;;;;;;;;2.85;56.07;96885.36;1692215;84;20221;-52
2021/03/11 07:06:34;;;;;;;;;;;;;;;2.94;56.03;96882.03;1668875;84;20287;-52
2021/03/11 07:09:04;;;;;;;;;;;;;;;3.16;55.70;96888.95;1680191;83;22549;-53
2021/03/11 07:11:31;;;;;;;;;;;;;;;3.38;55.29;96886.88;1690586;84;20226;-53
2021/03/11 07:14:00;;;;;;;;;;;;;;;3.52;54.70;96879.52;1661820;86;20507;-54
2021/03/11 07:16:28;;;;;;;;;;;;;;;3.74;54.27;96881.27;1652436;86;20733;-52
2021/03/11 07:19:15;;;;;;;;;;;;;;;3.92;53.35;96884.84;1668332;84;20457;-54
2021/03/11 07:21:52;;;;;;;;;;;;;;;4.19;52.45;96887.61;1690297;84;21205;-52
2021/03/11 07:24:34;;;;;;;;;;;;;;;4.40;51.85;96888.90;1649516;86;20264;-53
2021/03/11 07:27:02;;;;;;;;;;;;;;;4.46;51.64;96890.37;1686196;84;20227;-53
2021/03/11 07:29:31;;;;;;;;;;;;;;;4.15;51.01;96882.65;1664310;84;20248;-54
2021/03/11 07:32:02;;;;;;;;;;;;;;;3.85;51.83;96880.40;1665522;84;20287;-53
2021/03/11 07:34:33;;;;;;;;;;;;;;;3.68;51.78;96879.75;1662852;86;22131;-53
2021/03/11 07:37:00;;;;;;;;;;;;;;;3.49;51.76;96877.06;1687456;82;20586;-52
2021/03/11 07:39:33;;;;;;;;;;;;;;;3.43;51.41;96881.95;1703085;83;20272;-53
2021/03/11 07:42:01;;;;;;;;;;;;;;;3.27;51.31;96882.14;1662698;84;20233;-52
2021/03/11 07:44:29;;;;;;;;;;;;;;;3.28;51.25;96885.10;1665448;86;20534;-53
2021/03/11 07:47:00;;;;;;;;;;;;;;;3.33;50.28;96881.92;1668853;86;21025;-53
2021/03/11 07:49:28;;;;;;;;;;;;;;;3.36;50.61;96883.09;1669965;84;20283;-53
2021/03/11 07:51:56;;;;;;;;;;;;;;;3.33;51.16;96875.50;1678348;84;20525;-53
2021/03/11 07:54:23;;;;;;;;;;;;;;;3.21;51.52;96869.56;1696579;84;20249;-53
2021/03/11 07:56:51;;;;;;;;;;;;;;;2.97;52.25;96866.14;1666655;84;20263;-54
2021/03/11 07:59:19;;;;;;;;;;;;;;;2.68;52.97;96867.57;1684894;84;21451;-53
2021/03/11 08:01:52;;;;;;;;;;;;;;;2.38;54.49;96861.33;1668686;86;20495;-53
2021/03/11 08:04:22;;;;;;;;;;;;;;;1.96;56.09;96857.16;1669681;84;20265;-52
2021/03/11 08:06:50;;;;;;;;;;;;;;;1.61;56.51;96849.70;1678440;84;20226;-54
2021/03/11 08:09:37;;;;;;;;;;;;;;;1.49;57.43;96847.50;1671718;86;20235;-53
2021/03/11 08:12:37;;;;;;;;;;;;;;;1.61;57.59;96847.56;1667215;85;21011;-54
2021/03/11 08:15:18;;;;;;;;;;;;;;;1.72;57.33;96844.23;1655892;85;20241;-54
2021/03/11 08:17:48;;;;;;;;;;;;;;;1.57;57.59;96840.89;1671693;86;20498;-54
2021/03/11 08:20:23;;;;;;;;;;;;;;;1.42;58.13;96840.91;1657740;86;20849;-54
2021/03/11 08:23:00;;;;;;;;;;;;;;;1.65;57.49;96843.59;1640527;86;20225;-53
2021/03/11 08:25:36;;;;;;;;;;;;;;;1.69;57.29;96839.66;1668221;85;21224;-53
2021/03/11 08:28:10;;;;;;;;;;;;;;;1.69;57.69;96828.16;1655663;85;20297;-54
2021/03/11 08:30:41;;;;;;;;;;;;;;;1.79;56.99;96835.92;1659713;86;20292;-54
2021/03/11 08:33:12;;;;;;;;;;;;;;;1.73;56.58;96825.91;1644467;87;20225;-54
2021/03/11 08:35:44;;;;;;;;;;;;;;;1.75;56.67;96822.40;1658490;84;20223;-53
2021/03/11 08:38:25;;;;;;;;;;;;;;;1.93;57.10;96817.59;1656469;86;22131;-54
2021/03/11 08:41:08;;;;;;;;;;;;;;;2.20;56.24;96825.64;1658292;84;20258;-52
2021/03/11 08:43:41;;;;;;;;;;;;;;;2.66;55.82;96821.92;1651343;85;20236;-52
2021/03/11 08:46:12;;;;;;;;;;;;;;;3.08;53.61;96825.13;1649494;86;20238;-53
2021/03/11 08:48:51;;;;;;;;;;;;;;;3.10;53.93;96831.48;1675084;85;20231;-52
2021/03/11 08:51:26;;;;;;;;;;;;;;;2.83;55.15;96825.19;1647246;85;21224;-54
2021/03/11 08:54:12;;;;;;;;;;;;;;;2.47;56.53;96823.48;1644105;85;20709;-52
2021/03/11 08:56:37;;;;;;;;;;;;;;;2.83;56.32;96823.05;1644069;87;20230;-53
2021/03/11 08:59:14;;;;;;;;;;;;;;;3.44;55.09;96818.23;1651907;86;20227;-55
2021/03/11 09:01:52;;;;;;;;;;;;;;;3.76;54.21;96824.28;1663781;86;20213;-54
2021/03/11 09:04:27;;;;;;;;;;;;;;;4.00;53.60;96817.34;1668231;85;21230;-53
2021/03/11 09:07:10;;;;;;;;;;;;;;;3.81;53.76;96819.80;1628545;86;20278;-52
2021/03/11 09:09:44;;;;;;;;;;;;;;;4.10;53.62;96821.66;1662806;85;20337;-53
2021/03/11 09:12:18;;;;;;;;;;;;;;;4.42;52.68;96815.16;1664637;85;20855;-53
2021/03/11 09:14:50;;;;;;;;;;;;;;;4.79;51.55;96804.12;1664696;84;21797;-53
2021/03/11 09:17:20;;;;;;;;;;;;;;;4.94;50.84;96796.64;1692802;84;22370;-54
2021/03/11 09:19:50;;;;;;;;;;;;;;;4.91;50.67;96798.06;1684949;84;20255;-54
2021/03/11 09:22:32;;;;;;;;;;;;;;;4.66;50.84;96795.75;1654391;84;20237;-53
2021/03/11 09:25:09;;;;;;;;;;;;;;;4.61;51.22;96803.66;1654817;86;20256;-54
2021/03/11 09:27:54;;;;;;;;;;;;;;;4.70;51.08;96792.13;1665337;86;20253;-54
2021/03/11 09:30:37;;;;;;;;;;;;;;;4.76;51.09;96797.83;1679633;84;39982;-55
2021/03/11 09:33:20;;;;;;;;;;;;;;;4.77;50.97;96802.55;1666293;86;20260;-56
2021/03/11 09:35:49;;;;;;;;;;;;;;;5.12;50.76;96793.23;1646393;84;20260;-54
2021/03/11 09:38:24;;;;;;;;;;;;;;;5.73;50.21;96795.61;1662855;86;20239;-55
2021/03/11 09:40:54;;;;;;;;;;;;;;;6.45;47.34;96784.36;1664593;84;20269;-54
2021/03/11 09:43:28;;;;;;;;;;;;;;;6.88;46.42;96793.73;1688922;84;21065;-54
2021/03/11 09:45:58;;;;;;;;;;;;;;;6.62;45.42;96783.48;1683265;84;20227;-55
2021/03/11 09:48:37;;;;;;;;;;;;;;;6.21;46.70;96776.11;1652717;86;20228;-53
2021/03/11 09:51:12;;;;;;;;;;;;;;;6.03;47.20;96776.56;1688882;84;20277;-55
2021/03/11 09:53:42;;;;;;;;;;;;;;;5.91;46.98;96766.39;1667826;84;20524;-55
2021/03/11 09:56:21;;;;;;;;;;;;;;;5.98;47.24;96767.77;1694306;84;21206;-53
2021/03/11 09:58:50;;;;;;;;;;;;;;;6.22;47.17;96767.02;1683191;84;20218;-53
2021/03/11 10:01:40;;;;;;;;;;;;;;;6.54;46.02;96759.38;1681535;84;20273;-53
2021/03/11 10:04:14;;;;;;;;;;;;;;;6.63;46.78;96756.80;1691668;84;20233;-53
2021/03/11 10:06:48;;;;;;;;;;;;;;;7.10;45.27;96753.42;1671800;84;20289;-53
2021/03/11 10:09:16;;;;;;;;;;;;;;;7.12;44.41;96750.77;1696217;84;21775;-53
2021/03/11 10:11:47;;;;;;;;;;;;;;;6.75;46.14;96757.43;1673343;84;20231;-53
2021/03/11 10:14:17;;;;;;;;;;;;;;;6.62;46.68;96753.83;1679459;84;20223;-54
2021/03/11 10:16:53;;;;;;;;;;;;;;;6.52;46.56;96757.81;1887308;75;20171;-54
2021/03/11 10:19:30;;;;;;;;;;;;;;;6.22;47.25;96748.98;1847346;77;20485;-54
2021/03/11 10:22:07;;;;;;;;;;;;;;;6.01;48.36;96748.77;1852116;77;21033;-53
2021/03/11 10:24:44;;;;;;;;;;;;;;;5.67;48.79;96749.09;1855450;77;20152;-53
2021/03/11 10:27:22;;;;;;;;;;;;;;;5.51;48.99;96756.73;1861464;77;20217;-53
2021/03/11 10:30:21;;;;;;;;;;;;;;;5.51;49.12;96748.55;1835111;77;20495;-54
2021/03/11 10:32:49;;;;;;;;;;;;;;;5.76;49.78;96736.25;1828738;78;20239;-53
2021/03/11 10:35:34;;;;;;;;;;;;;;;6.40;48.86;96745.92;1838671;77;22085;-54
2021/03/11 10:38:25;;;;;;;;;;;;;;;6.62;46.71;96723.72;1836537;77;20149;-54
2021/03/11 10:40:52;;;;;;;;;;;;;;;6.22;47.82;96728.83;1846438;77;20107;-54
2021/03/11 10:43:21;;;;;;;;;;;;;;;5.96;48.42;96722.38;1862926;77;20277;-54
2021/03/11 10:45:48;;;;;;;;;;;;;;;5.89;48.50;96731.69;1831932;77;20537;-54
2021/03/11 10:48:16;;;;;;;;;;;;;;;5.84;49.19;96724.66;1825925;78;21656;-54
2021/03/11 10:50:46;;;;;;;;;;;;;;;6.04;48.99;96719.00;1845815;77;20496;-53
2021/03/11 10:53:14;;;;;;;;;;;;;;;6.38;48.26;96718.55;1833171;77;20318;-53
2021/03/11 10:55:43;;;;;;;;;;;;;;;6.33;48.09;96717.95;1821854;78;20211;-53
2021/03/11 10:58:26;;;;;;;;;;;;;;;6.21;48.16;96708.65;1824417;77;20248;-54
2021/03/11 11:01:17;;;;;;;;;;;;;;;6.03;48.20;96712.17;1830273;78;21347;-53
2021/03/11 11:03:46;;;;;;;;;;;;;;;5.81;48.89;96715.78;1829563;78;20216;-53
2021/03/11 11:06:14;;;;;;;;;;;;;;;5.85;49.28;96714.70;1829258;77;20263;-54
2021/03/11 11:08:46;;;;;;;;;;;;;;;6.13;48.71;96705.63;1823488;77;20219;-53
2021/03/11 11:11:14;;;;;;;;;;;;;;;6.07;47.86;96714.52;1813246;77;20245;-53
2021/03/11 11:13:42;;;;;;;;;;;;;;;6.11;48.85;96712.61;1822443;77;21403;-53
2021/03/11 11:16:11;;;;;;;;;;;;;;;6.07;48.51;96696.48;1836667;77;20302;-57
2021/03/11 11:18:39;;;;;;;;;;;;;;;5.80;49.08;96692.69;1833102;78;20237;-53
2021/03/11 11:21:07;;;;;;;;;;;;;;;5.98;49.41;96703.38;1823890;78;20507;-53
2021/03/11 11:23:34;;;;;;;;;;;;;;;6.16;48.01;96713.67;1832984;78;20624;-55
2021/03/11 11:26:02;;;;;;;;;;;;;;;5.77;48.81;96712.97;1828751;77;21373;-53
2021/03/11 11:28:29;;;;;;;;;;;;;;;5.34;50.01;96687.61;1822910;77;20207;-53
2021/03/11 11:30:56;;;;;;;;;;;;;;;5.31;50.97;96698.47;1842013;77;20214;-53
2021/03/11 11:33:24;;;;;;;;;;;;;;;5.49;49.73;96687.31;1832804;78;20239;-53
2021/03/11 11:35:52;;;;;;;;;;;;;;;5.38;49.85;96682.28;1832277;78;20216;-53
2021/03/11 11:38:20;;;;;;;;;;;;;;;5.17;50.11;96677.28;1799159;78;21192;-54
2021/03/11 11:40:47;;;;;;;;;;;;;;;5.18;50.71;96679.39;1793241;78;20527;-54
2021/03/11 11:43:15;;;;;;;;;;;;;;;5.18;50.51;96677.67;1816817;77;20234;-55
2021/03/11 11:45:43;;;;;;;;;;;;;;;5.04;51.48;96666.73;1832843;77;20224;-55
2021/03/11 11:48:10;;;;;;;;;;;;;;;4.90;51.66;96658.82;1825828;78;20244;-53
2021/03/11 11:50:39;;;;;;;;;;;;;;;4.95;52.05;96649.15;1822816;78;22171;-54
2021/03/11 11:53:06;;;;;;;;;;;;;;;5.07;51.35;96649.05;1830853;78;20133;-54
2021/03/11 11:55:34;;;;;;;;;;;;;;;4.82;52.24;96646.78;1829882;77;20219;-54
2021/03/11 11:58:02;;;;;;;;;;;;;;;4.61;52.53;96627.61;1820831;77;20240;-54
2021/03/11 12:00:29;;;;;;;;;;;;;;;4.44;53.23;96620.68;1824870;77;20210;-54
2021/03/11 12:02:57;;;;;;;;;;;;;;;4.38;53.56;96619.20;1833485;77;22450;-54
2021/03/11 12:05:24;;;;;;;;;;;;;;;4.58;53.41;96611.86;1804804;79;20280;-54
2021/03/11 12:07:53;;;;;;;;;;;;;;;5.03;51.94;96614.08;1828368;78;20220;-54
2021/03/11 12:10:21;;;;;;;;;;;;;;;5.30;50.96;96607.60;1813493;77;20212;-54
2021/03/11 12:12:48;;;;;;;;;;;;;;;5.40;50.75;96605.41;1823205;78;20220;-54
2021/03/11 12:15:16;;;;;;;;;;;;;;;5.41;50.63;96603.66;1834169;77;21193;-54
2021/03/11 12:17:45;;;;;;;;;;;;;;;5.56;50.63;96604.63;1798298;78;20596;-53
2021/03/11 12:20:15;;;;;;;;;;;;;;;5.71;50.53;96604.70;1798912;78;20235;-53
2021/03/11 12:22:43;;;;;;;;;;;;;;;5.74;49.29;96587.42;1820941;77;20136;-54
2021/03/11 12:25:11;;;;;;;;;;;;;;;5.67;49.23;96599.34;1829260;78;20227;-53
2021/03/11 12:27:39;;;;;;;;;;;;;;;5.66;49.49;96592.98;1826401;77;21187;-52
2021/03/11 12:30:07;;;;;;;;;;;;;;;5.75;49.14;96586.53;1833392;77;20220;-54
2021/03/11 12:32:36;;;;;;;;;;;;;;;5.50;49.00;96589.06;1828518;78;20128;-55
2021/03/11 12:35:06;;;;;;;;;;;;;;;5.27;49.60;96586.34;1806369;78;20216;-53
2021/03/11 12:37:33;;;;;;;;;;;;;;;5.08;50.50;96581.26;1826366;77;20237;-55
2021/03/11 12:40:00;;;;;;;;;;;;;;;5.11;50.96;96583.68;1803384;77;21029;-54
2021/03/11 12:42:27;;;;;;;;;;;;;;;5.41;49.91;96579.21;1820519;79;20239;-54
2021/03/11 12:44:54;;;;;;;;;;;;;;;5.51;50.06;96579.16;1831542;77;20272;-53
2021/03/11 12:47:21;;;;;;;;;;;;;;;5.38;50.41;96584.51;1826323;78;20227;-53
2021/03/11 12:49:49;;;;;;;;;;;;;;;5.20;50.90;96570.81;1818594;78;20283;-53
2021/03/11 12:52:16;;;;;;;;;;;;;;;5.07;51.42;96575.75;1812333;78;21368;-55
2021/03/11 12:54:43;;;;;;;;;;;;;;;5.19;50.96;96571.28;1828031;77;20227;-55
2021/03/11 12:57:11;;;;;;;;;;;;;;;5.31;49.99;96571.12;1855954;77;20233;-54
2021/03/11 12:59:38;;;;;;;;;;;;;;;5.03;51.06;96567.79;1841204;77;20226;-55
2021/03/11 13:02:06;;;;;;;;;;;;;;;4.65;51.80;96559.72;1824942;78;20223;-54
2021/03/11 13:04:34;;;;;;;;;;;;;;;4.41;52.35;96556.13;1827679;78;21650;-54
2021/03/11 13:07:01;;;;;;;;;;;;;;;4.43;53.53;96547.89;1824237;78;20220;-54
2021/03/11 13:09:33;;;;;;;;;;;;;;;4.67;52.90;96551.52;1810670;78;20238;-55
2021/03/11 13:12:02;;;;;;;;;;;;;;;4.82;51.89;96551.66;1809543;78;20503;-54
2021/03/11 13:14:29;;;;;;;;;;;;;;;4.81;51.55;96539.27;1814202;77;20234;-53